sensor_id;sensor_type;location;lat;lon;timestamp;P1;durP1;ratioP1;P2;durP2;ratioP2
4857;SDS011;58975;51.978;8.472;2022-11-21T00:01:14;35.40;;;14.57;;
4857;SDS011;58975;51.978;8.472;2022-11-21T00:06:16;34.85;;;15.88;;
4857;SDS011;58975;51.978;8.472;2022-11-21T00:11:13;26.77;;;13.45;;
4857;SDS011;58975;51.978;8.472;2022-11-21T00:16:10;28.02;;;13.63;;
4857;SDS011;58975;51.978;8.472;2022-11-21T00:21:10;32.72;;;12.93;;
4857;SDS011;58975;51.978;8.472;2022-11-21T00:26:09;25.65;;;11.52;;
4857;SDS011;58975;51.978;8.472;2022-11-21T00:31:07;23.52;;;9.70;;
4857;SDS011;58975;51.978;8.472;2022-11-21T00:36:04;24.85;;;13.35;;
4857;SDS011;58975;51.978;8.472;2022-11-21T00:41:02;25.20;;;13.43;;
4857;SDS011;58975;51.978;8.472;2022-11-21T00:45:59;25.75;;;11.15;;
4857;SDS011;58975;51.978;8.472;2022-11-21T00:50:58;22.23;;;10.90;;
4857;SDS011;58975;51.978;8.472;2022-11-21T00:55:55;21.87;;;10.27;;
4857;SDS011;58975;51.978;8.472;2022-11-21T01:01:00;26.33;;;12.80;;
4857;SDS011;58975;51.978;8.472;2022-11-21T01:06:00;25.77;;;11.38;;
4857;SDS011;58975;51.978;8.472;2022-11-21T01:11:00;26.63;;;11.57;;
4857;SDS011;58975;51.978;8.472;2022-11-21T01:16:02;26.92;;;12.07;;
4857;SDS011;58975;51.978;8.472;2022-11-21T01:21:04;25.15;;;11.95;;
4857;SDS011;58975;51.978;8.472;2022-11-21T01:26:04;27.48;;;12.00;;
4857;SDS011;58975;51.978;8.472;2022-11-21T01:31:06;24.77;;;10.85;;
4857;SDS011;58975;51.978;8.472;2022-11-21T01:36:04;24.80;;;9.90;;
4857;SDS011;58975;51.978;8.472;2022-11-21T01:41:07;21.02;;;9.13;;
4857;SDS011;58975;51.978;8.472;2022-11-21T01:51:10;19.73;;;9.10;;
4857;SDS011;58975;51.978;8.472;2022-11-21T01:56:21;20.77;;;9.55;;
4857;SDS011;58975;51.978;8.472;2022-11-21T02:01:18;21.90;;;9.48;;
4857;SDS011;58975;51.978;8.472;2022-11-21T02:06:15;19.02;;;9.15;;
4857;SDS011;58975;51.978;8.472;2022-11-21T02:16:33;16.70;;;8.00;;
4857;SDS011;58975;51.978;8.472;2022-11-21T02:26:36;22.33;;;9.98;;
4857;SDS011;58975;51.978;8.472;2022-11-21T02:31:33;19.83;;;9.18;;
4857;SDS011;58975;51.978;8.472;2022-11-21T02:41:47;18.05;;;8.27;;
4857;SDS011;58975;51.978;8.472;2022-11-21T02:51:46;18.63;;;9.80;;
4857;SDS011;58975;51.978;8.472;2022-11-21T02:56:43;23.85;;;10.95;;
4857;SDS011;58975;51.978;8.472;2022-11-21T03:01:40;31.80;;;12.48;;
4857;SDS011;58975;51.978;8.472;2022-11-21T03:06:36;23.83;;;10.77;;
4857;SDS011;58975;51.978;8.472;2022-11-21T03:11:32;21.67;;;10.25;;
4857;SDS011;58975;51.978;8.472;2022-11-21T03:16:29;22.05;;;10.52;;
4857;SDS011;58975;51.978;8.472;2022-11-21T03:21:25;24.20;;;11.70;;
4857;SDS011;58975;51.978;8.472;2022-11-21T03:26:22;21.70;;;9.90;;
4857;SDS011;58975;51.978;8.472;2022-11-21T03:31:19;23.30;;;12.77;;
4857;SDS011;58975;51.978;8.472;2022-11-21T03:36:15;27.48;;;12.57;;
4857;SDS011;58975;51.978;8.472;2022-11-21T03:41:11;21.98;;;11.18;;
4857;SDS011;58975;51.978;8.472;2022-11-21T03:46:26;25.58;;;12.73;;
4857;SDS011;58975;51.978;8.472;2022-11-21T03:51:24;27.40;;;13.23;;
4857;SDS011;58975;51.978;8.472;2022-11-21T03:56:21;26.15;;;12.32;;
4857;SDS011;58975;51.978;8.472;2022-11-21T04:01:18;25.95;;;11.77;;
4857;SDS011;58975;51.978;8.472;2022-11-21T04:06:15;24.17;;;11.73;;
4857;SDS011;58975;51.978;8.472;2022-11-21T04:11:13;24.58;;;12.40;;
4857;SDS011;58975;51.978;8.472;2022-11-21T04:16:10;21.75;;;11.05;;
4857;SDS011;58975;51.978;8.472;2022-11-21T04:21:07;24.70;;;11.40;;
4857;SDS011;58975;51.978;8.472;2022-11-21T04:26:04;28.23;;;12.73;;
4857;SDS011;58975;51.978;8.472;2022-11-21T04:31:01;21.85;;;11.40;;
4857;SDS011;58975;51.978;8.472;2022-11-21T04:36:06;24.15;;;11.80;;
4857;SDS011;58975;51.978;8.472;2022-11-21T04:41:03;21.63;;;10.07;;
4857;SDS011;58975;51.978;8.472;2022-11-21T04:46:00;23.17;;;11.32;;
4857;SDS011;58975;51.978;8.472;2022-11-21T04:50:56;23.55;;;11.57;;
4857;SDS011;58975;51.978;8.472;2022-11-21T04:55:53;23.83;;;10.70;;
4857;SDS011;58975;51.978;8.472;2022-11-21T05:00:49;23.50;;;10.73;;
4857;SDS011;58975;51.978;8.472;2022-11-21T05:05:45;20.13;;;10.90;;
4857;SDS011;58975;51.978;8.472;2022-11-21T05:10:42;23.50;;;11.63;;
4857;SDS011;58975;51.978;8.472;2022-11-21T05:15:57;16.92;;;9.35;;
4857;SDS011;58975;51.978;8.472;2022-11-21T05:20:54;21.60;;;10.38;;
4857;SDS011;58975;51.978;8.472;2022-11-21T05:25:50;20.00;;;10.57;;
4857;SDS011;58975;51.978;8.472;2022-11-21T05:30:47;21.00;;;9.75;;
4857;SDS011;58975;51.978;8.472;2022-11-21T05:35:43;17.25;;;9.02;;
4857;SDS011;58975;51.978;8.472;2022-11-21T05:40:39;17.67;;;9.80;;
4857;SDS011;58975;51.978;8.472;2022-11-21T05:45:36;20.17;;;10.55;;
4857;SDS011;58975;51.978;8.472;2022-11-21T05:50:35;22.23;;;11.32;;
4857;SDS011;58975;51.978;8.472;2022-11-21T05:55:32;20.48;;;10.00;;
4857;SDS011;58975;51.978;8.472;2022-11-21T06:00:29;20.50;;;10.63;;
4857;SDS011;58975;51.978;8.472;2022-11-21T06:05:26;19.00;;;10.48;;
4857;SDS011;58975;51.978;8.472;2022-11-21T06:10:22;18.83;;;10.85;;
4857;SDS011;58975;51.978;8.472;2022-11-21T06:15:19;20.58;;;11.23;;
4857;SDS011;58975;51.978;8.472;2022-11-21T06:20:18;18.77;;;10.20;;
4857;SDS011;58975;51.978;8.472;2022-11-21T06:25:14;22.42;;;9.50;;
4857;SDS011;58975;51.978;8.472;2022-11-21T06:30:11;19.85;;;9.52;;
4857;SDS011;58975;51.978;8.472;2022-11-21T06:35:07;14.57;;;8.55;;
4857;SDS011;58975;51.978;8.472;2022-11-21T06:40:04;17.77;;;9.45;;
4857;SDS011;58975;51.978;8.472;2022-11-21T06:45:01;20.58;;;10.27;;
4857;SDS011;58975;51.978;8.472;2022-11-21T06:49:57;17.85;;;9.63;;
4857;SDS011;58975;51.978;8.472;2022-11-21T06:54:53;21.77;;;9.95;;
4857;SDS011;58975;51.978;8.472;2022-11-21T06:59:50;19.38;;;11.27;;
4857;SDS011;58975;51.978;8.472;2022-11-21T07:04:46;14.82;;;8.25;;
4857;SDS011;58975;51.978;8.472;2022-11-21T07:09:42;15.85;;;9.20;;
4857;SDS011;58975;51.978;8.472;2022-11-21T07:14:39;20.52;;;9.68;;
4857;SDS011;58975;51.978;8.472;2022-11-21T07:19:36;24.48;;;10.90;;
4857;SDS011;58975;51.978;8.472;2022-11-21T07:24:36;17.50;;;9.60;;
4857;SDS011;58975;51.978;8.472;2022-11-21T07:29:32;26.10;;;10.77;;
4857;SDS011;58975;51.978;8.472;2022-11-21T07:34:29;26.55;;;11.95;;
4857;SDS011;58975;51.978;8.472;2022-11-21T07:39:25;80.65;;;13.73;;
4857;SDS011;58975;51.978;8.472;2022-11-21T07:44:22;80.63;;;16.15;;
4857;SDS011;58975;51.978;8.472;2022-11-21T07:49:19;39.00;;;13.23;;
4857;SDS011;58975;51.978;8.472;2022-11-21T07:54:15;36.05;;;13.20;;
4857;SDS011;58975;51.978;8.472;2022-11-21T07:59:11;32.88;;;12.80;;
4857;SDS011;58975;51.978;8.472;2022-11-21T08:04:08;46.60;;;14.55;;
4857;SDS011;58975;51.978;8.472;2022-11-21T08:09:04;36.40;;;14.07;;
4857;SDS011;58975;51.978;8.472;2022-11-21T08:14:01;34.58;;;14.25;;
4857;SDS011;58975;51.978;8.472;2022-11-21T08:18:58;32.60;;;15.50;;
4857;SDS011;58975;51.978;8.472;2022-11-21T08:23:55;29.10;;;14.40;;
4857;SDS011;58975;51.978;8.472;2022-11-21T08:28:51;41.90;;;16.27;;
4857;SDS011;58975;51.978;8.472;2022-11-21T08:33:55;42.38;;;17.98;;
4857;SDS011;58975;51.978;8.472;2022-11-21T08:38:52;36.33;;;16.20;;
4857;SDS011;58975;51.978;8.472;2022-11-21T08:43:48;35.20;;;16.38;;
4857;SDS011;58975;51.978;8.472;2022-11-21T08:48:44;35.58;;;16.75;;
4857;SDS011;58975;51.978;8.472;2022-11-21T08:53:41;35.45;;;17.77;;
4857;SDS011;58975;51.978;8.472;2022-11-21T08:58:38;39.75;;;17.55;;
4857;SDS011;58975;51.978;8.472;2022-11-21T09:03:35;41.58;;;17.83;;
4857;SDS011;58975;51.978;8.472;2022-11-21T09:08:31;36.22;;;16.02;;
4857;SDS011;58975;51.978;8.472;2022-11-21T09:13:28;41.80;;;16.55;;
4857;SDS011;58975;51.978;8.472;2022-11-21T09:18:24;41.97;;;15.68;;
4857;SDS011;58975;51.978;8.472;2022-11-21T09:23:20;41.03;;;15.35;;
4857;SDS011;58975;51.978;8.472;2022-11-21T09:28:17;42.78;;;15.48;;
4857;SDS011;58975;51.978;8.472;2022-11-21T09:33:14;38.53;;;15.00;;
4857;SDS011;58975;51.978;8.472;2022-11-21T09:38:12;40.05;;;15.70;;
4857;SDS011;58975;51.978;8.472;2022-11-21T09:48:35;43.53;;;16.10;;
4857;SDS011;58975;51.978;8.472;2022-11-21T09:53:59;40.63;;;16.02;;
4857;SDS011;58975;51.978;8.472;2022-11-21T10:04:06;41.65;;;16.63;;
4857;SDS011;58975;51.978;8.472;2022-11-21T10:24:39;38.00;;;15.27;;
4857;SDS011;58975;51.978;8.472;2022-11-21T10:29:52;40.17;;;16.60;;
4857;SDS011;58975;51.978;8.472;2022-11-21T10:34:57;35.97;;;14.98;;
4857;SDS011;58975;51.978;8.472;2022-11-21T10:40:02;39.53;;;16.35;;
4857;SDS011;58975;51.978;8.472;2022-11-21T10:45:11;34.42;;;14.07;;
4857;SDS011;58975;51.978;8.472;2022-11-21T10:55:33;35.38;;;13.35;;
4857;SDS011;58975;51.978;8.472;2022-11-21T11:00:29;33.80;;;15.77;;
4857;SDS011;58975;51.978;8.472;2022-11-21T11:05:27;39.10;;;14.75;;
4857;SDS011;58975;51.978;8.472;2022-11-21T11:10:24;24.33;;;10.48;;
4857;SDS011;58975;51.978;8.472;2022-11-21T11:15:24;38.47;;;14.57;;
4857;SDS011;58975;51.978;8.472;2022-11-21T11:20:29;42.40;;;17.02;;
4857;SDS011;58975;51.978;8.472;2022-11-21T11:25:26;38.83;;;14.43;;
4857;SDS011;58975;51.978;8.472;2022-11-21T11:30:23;38.35;;;15.50;;
4857;SDS011;58975;51.978;8.472;2022-11-21T11:35:20;43.15;;;15.05;;
4857;SDS011;58975;51.978;8.472;2022-11-21T11:50:48;34.28;;;13.43;;
4857;SDS011;58975;51.978;8.472;2022-11-21T12:00:57;31.85;;;13.30;;
4857;SDS011;58975;51.978;8.472;2022-11-21T12:06:25;35.07;;;13.20;;
4857;SDS011;58975;51.978;8.472;2022-11-21T12:17:12;28.77;;;12.95;;
4857;SDS011;58975;51.978;8.472;2022-11-21T12:22:12;31.48;;;13.07;;
4857;SDS011;58975;51.978;8.472;2022-11-21T12:43:23;26.17;;;11.63;;
4857;SDS011;58975;51.978;8.472;2022-11-21T12:59:11;31.52;;;11.85;;
4857;SDS011;58975;51.978;8.472;2022-11-21T13:04:32;28.92;;;12.55;;
4857;SDS011;58975;51.978;8.472;2022-11-21T13:09:32;24.85;;;11.32;;
4857;SDS011;58975;51.978;8.472;2022-11-21T13:14:37;27.40;;;11.88;;
4857;SDS011;58975;51.978;8.472;2022-11-21T13:24:59;27.15;;;11.45;;
4857;SDS011;58975;51.978;8.472;2022-11-21T13:35:01;24.42;;;10.95;;
4857;SDS011;58975;51.978;8.472;2022-11-21T13:40:33;22.08;;;10.80;;
4857;SDS011;58975;51.978;8.472;2022-11-21T13:45:39;22.58;;;10.07;;
4857;SDS011;58975;51.978;8.472;2022-11-21T13:50:48;21.58;;;10.50;;
4857;SDS011;58975;51.978;8.472;2022-11-21T13:55:55;23.17;;;10.88;;
4857;SDS011;58975;51.978;8.472;2022-11-21T14:01:05;19.98;;;9.85;;
4857;SDS011;58975;51.978;8.472;2022-11-21T14:11:36;18.15;;;8.93;;
4857;SDS011;58975;51.978;8.472;2022-11-21T14:16:43;19.17;;;9.55;;
4857;SDS011;58975;51.978;8.472;2022-11-21T14:21:46;20.08;;;9.18;;
4857;SDS011;58975;51.978;8.472;2022-11-21T14:26:45;18.45;;;9.60;;
4857;SDS011;58975;51.978;8.472;2022-11-21T14:31:44;18.27;;;9.80;;
4857;SDS011;58975;51.978;8.472;2022-11-21T14:36:42;19.65;;;10.07;;
4857;SDS011;58975;51.978;8.472;2022-11-21T14:41:39;19.98;;;10.18;;
4857;SDS011;58975;51.978;8.472;2022-11-21T14:46:37;18.90;;;10.13;;
4857;SDS011;58975;51.978;8.472;2022-11-21T14:51:34;19.30;;;10.27;;
4857;SDS011;58975;51.978;8.472;2022-11-21T14:56:32;21.58;;;10.90;;
4857;SDS011;58975;51.978;8.472;2022-11-21T15:01:30;24.90;;;11.63;;
4857;SDS011;58975;51.978;8.472;2022-11-21T15:06:28;23.17;;;11.00;;
4857;SDS011;58975;51.978;8.472;2022-11-21T15:16:26;23.38;;;10.88;;
4857;SDS011;58975;51.978;8.472;2022-11-21T15:21:22;21.63;;;10.82;;
4857;SDS011;58975;51.978;8.472;2022-11-21T15:26:30;19.63;;;9.63;;
4857;SDS011;58975;51.978;8.472;2022-11-21T15:31:27;17.67;;;9.57;;
4857;SDS011;58975;51.978;8.472;2022-11-21T15:36:24;17.38;;;9.45;;
4857;SDS011;58975;51.978;8.472;2022-11-21T15:41:25;19.48;;;10.07;;
4857;SDS011;58975;51.978;8.472;2022-11-21T15:46:26;21.80;;;11.63;;
4857;SDS011;58975;51.978;8.472;2022-11-21T15:51:26;21.23;;;9.70;;
4857;SDS011;58975;51.978;8.472;2022-11-21T15:56:47;23.40;;;10.05;;
4857;SDS011;58975;51.978;8.472;2022-11-21T16:01:44;20.80;;;10.13;;
4857;SDS011;58975;51.978;8.472;2022-11-21T16:06:42;22.33;;;8.60;;
4857;SDS011;58975;51.978;8.472;2022-11-21T16:11:42;21.40;;;9.82;;
4857;SDS011;58975;51.978;8.472;2022-11-21T16:16:39;25.33;;;10.90;;
4857;SDS011;58975;51.978;8.472;2022-11-21T16:21:39;25.88;;;12.25;;
4857;SDS011;58975;51.978;8.472;2022-11-21T16:26:36;28.85;;;12.88;;
4857;SDS011;58975;51.978;8.472;2022-11-21T16:31:32;25.77;;;12.10;;
4857;SDS011;58975;51.978;8.472;2022-11-21T16:36:30;24.48;;;10.30;;
4857;SDS011;58975;51.978;8.472;2022-11-21T16:41:27;31.48;;;10.82;;
4857;SDS011;58975;51.978;8.472;2022-11-21T16:46:24;26.48;;;9.43;;
4857;SDS011;58975;51.978;8.472;2022-11-21T16:51:21;22.92;;;11.07;;
4857;SDS011;58975;51.978;8.472;2022-11-21T16:56:17;22.50;;;10.07;;
4857;SDS011;58975;51.978;8.472;2022-11-21T17:01:15;23.77;;;10.73;;
4857;SDS011;58975;51.978;8.472;2022-11-21T17:06:14;21.38;;;10.50;;
4857;SDS011;58975;51.978;8.472;2022-11-21T17:11:14;22.25;;;11.15;;
4857;SDS011;58975;51.978;8.472;2022-11-21T17:16:13;22.58;;;10.82;;
4857;SDS011;58975;51.978;8.472;2022-11-21T17:21:14;19.67;;;9.52;;
4857;SDS011;58975;51.978;8.472;2022-11-21T17:26:12;17.90;;;9.25;;
4857;SDS011;58975;51.978;8.472;2022-11-21T17:31:11;19.40;;;9.32;;
4857;SDS011;58975;51.978;8.472;2022-11-21T17:36:10;18.92;;;8.63;;
4857;SDS011;58975;51.978;8.472;2022-11-21T17:41:10;17.30;;;9.15;;
4857;SDS011;58975;51.978;8.472;2022-11-21T17:46:14;17.40;;;7.93;;
4857;SDS011;58975;51.978;8.472;2022-11-21T17:51:15;18.63;;;8.27;;
4857;SDS011;58975;51.978;8.472;2022-11-21T17:56:15;15.95;;;8.32;;
4857;SDS011;58975;51.978;8.472;2022-11-21T18:01:16;17.45;;;8.93;;
4857;SDS011;58975;51.978;8.472;2022-11-21T18:06:16;15.60;;;7.30;;
4857;SDS011;58975;51.978;8.472;2022-11-21T18:11:13;15.63;;;8.30;;
4857;SDS011;58975;51.978;8.472;2022-11-21T18:16:14;17.38;;;8.95;;
4857;SDS011;58975;51.978;8.472;2022-11-21T18:26:12;17.03;;;8.43;;
4857;SDS011;58975;51.978;8.472;2022-11-21T18:36:09;14.25;;;7.07;;
4857;SDS011;58975;51.978;8.472;2022-11-21T18:46:14;17.65;;;8.98;;
4857;SDS011;58975;51.978;8.472;2022-11-21T18:51:11;18.85;;;7.68;;
4857;SDS011;58975;51.978;8.472;2022-11-21T18:56:13;14.65;;;8.27;;
4857;SDS011;58975;51.978;8.472;2022-11-21T19:01:15;17.30;;;8.43;;
4857;SDS011;58975;51.978;8.472;2022-11-21T19:06:16;16.13;;;8.80;;
4857;SDS011;58975;51.978;8.472;2022-11-21T19:11:14;15.20;;;8.05;;
4857;SDS011;58975;51.978;8.472;2022-11-21T19:16:12;16.88;;;8.23;;
4857;SDS011;58975;51.978;8.472;2022-11-21T19:21:13;19.00;;;7.82;;
4857;SDS011;58975;51.978;8.472;2022-11-21T19:26:11;14.20;;;7.80;;
4857;SDS011;58975;51.978;8.472;2022-11-21T19:31:13;16.13;;;8.70;;
4857;SDS011;58975;51.978;8.472;2022-11-21T19:41:10;18.53;;;8.47;;
4857;SDS011;58975;51.978;8.472;2022-11-21T19:46:27;20.67;;;10.32;;
4857;SDS011;58975;51.978;8.472;2022-11-21T19:51:27;19.58;;;9.65;;
4857;SDS011;58975;51.978;8.472;2022-11-21T19:56:28;20.70;;;9.88;;
4857;SDS011;58975;51.978;8.472;2022-11-21T20:01:25;18.88;;;10.38;;
4857;SDS011;58975;51.978;8.472;2022-11-21T20:11:21;20.85;;;10.20;;
4857;SDS011;58975;51.978;8.472;2022-11-21T20:16:20;20.02;;;10.40;;
4857;SDS011;58975;51.978;8.472;2022-11-21T20:21:20;18.70;;;9.90;;
4857;SDS011;58975;51.978;8.472;2022-11-21T20:26:18;22.25;;;10.32;;
4857;SDS011;58975;51.978;8.472;2022-11-21T20:31:19;27.05;;;11.10;;
4857;SDS011;58975;51.978;8.472;2022-11-21T20:36:22;21.75;;;10.70;;
4857;SDS011;58975;51.978;8.472;2022-11-21T20:46:20;23.70;;;11.27;;
4857;SDS011;58975;51.978;8.472;2022-11-21T20:51:16;19.63;;;11.05;;
4857;SDS011;58975;51.978;8.472;2022-11-21T20:56:33;28.70;;;12.85;;
4857;SDS011;58975;51.978;8.472;2022-11-21T21:01:31;24.67;;;11.07;;
4857;SDS011;58975;51.978;8.472;2022-11-21T21:06:27;18.77;;;10.32;;
4857;SDS011;58975;51.978;8.472;2022-11-21T21:11:24;20.75;;;10.98;;
4857;SDS011;58975;51.978;8.472;2022-11-21T21:16:40;22.13;;;10.73;;
4857;SDS011;58975;51.978;8.472;2022-11-21T21:21:38;20.48;;;10.63;;
4857;SDS011;58975;51.978;8.472;2022-11-21T21:26:37;18.08;;;9.32;;
4857;SDS011;58975;51.978;8.472;2022-11-21T21:31:38;20.08;;;10.38;;
4857;SDS011;58975;51.978;8.472;2022-11-21T21:36:42;21.45;;;11.63;;
4857;SDS011;58975;51.978;8.472;2022-11-21T21:41:38;21.38;;;10.65;;
4857;SDS011;58975;51.978;8.472;2022-11-21T21:46:39;22.60;;;10.57;;
4857;SDS011;58975;51.978;8.472;2022-11-21T21:51:35;19.75;;;9.50;;
4857;SDS011;58975;51.978;8.472;2022-11-21T21:56:32;17.17;;;9.63;;
4857;SDS011;58975;51.978;8.472;2022-11-21T22:01:30;16.50;;;9.15;;
4857;SDS011;58975;51.978;8.472;2022-11-21T22:06:28;20.25;;;9.30;;
4857;SDS011;58975;51.978;8.472;2022-11-21T22:11:29;13.55;;;8.02;;
4857;SDS011;58975;51.978;8.472;2022-11-21T22:16:27;17.60;;;8.82;;
4857;SDS011;58975;51.978;8.472;2022-11-21T22:21:25;13.93;;;7.65;;
4857;SDS011;58975;51.978;8.472;2022-11-21T22:26:23;17.52;;;8.75;;
4857;SDS011;58975;51.978;8.472;2022-11-21T22:31:20;15.88;;;7.15;;
4857;SDS011;58975;51.978;8.472;2022-11-21T22:36:17;15.02;;;7.95;;
4857;SDS011;58975;51.978;8.472;2022-11-21T22:41:14;16.10;;;7.40;;
4857;SDS011;58975;51.978;8.472;2022-11-21T22:46:15;14.43;;;7.63;;
4857;SDS011;58975;51.978;8.472;2022-11-21T22:51:12;19.20;;;8.10;;
4857;SDS011;58975;51.978;8.472;2022-11-21T22:56:09;15.10;;;7.18;;
4857;SDS011;58975;51.978;8.472;2022-11-21T23:01:07;12.05;;;6.88;;
4857;SDS011;58975;51.978;8.472;2022-11-21T23:06:11;18.38;;;7.10;;
4857;SDS011;58975;51.978;8.472;2022-11-21T23:16:08;9.48;;;6.03;;
4857;SDS011;58975;51.978;8.472;2022-11-21T23:21:05;10.23;;;5.78;;
4857;SDS011;58975;51.978;8.472;2022-11-21T23:26:03;14.38;;;5.50;;
4857;SDS011;58975;51.978;8.472;2022-11-21T23:31:00;8.75;;;5.07;;
4857;SDS011;58975;51.978;8.472;2022-11-21T23:35:56;10.73;;;6.15;;
4857;SDS011;58975;51.978;8.472;2022-11-21T23:40:53;12.65;;;5.88;;
4857;SDS011;58975;51.978;8.472;2022-11-21T23:45:50;14.43;;;7.18;;
4857;SDS011;58975;51.978;8.472;2022-11-21T23:50:47;8.68;;;5.55;;
